Time;durP1;ratioP1;P1;durP2;ratioP2;P2;SDS_P1;SDS_P2;PMS_P1;PMS_P2;Temp;Humidity;BMP_temperature;BMP_pressure;BME280_temperature;BME280_humidity;BME280_pressure;Samples;Min_cycle;Max_cycle;Signal;HPM_P1;HPM_P2
2023/12/30 00:01:47;;;;;;;11.55;2.22;;;;;;;;;;4946717;28;20035;-77
2023/12/30 00:04:13;;;;;;;19.58;2.38;;;;;;;;;;4947326;28;20023;-78
2023/12/30 00:06:40;;;;;;;5.68;1.35;;;;;;;;;;4942623;28;20035;-76
2023/12/30 00:09:06;;;;;;;16.58;1.33;;;;;;;;;;4945506;29;20062;-77
2023/12/30 00:11:33;;;;;;;12.85;1.73;;;;;;;;;;4948175;29;20043;-76
2023/12/30 00:13:59;;;;;;;9.35;1.33;;;;;;;;;;4945924;28;20464;-74
2023/12/30 00:16:26;;;;;;;10.52;1.52;;;;;;;;;;4946138;28;20103;-76
2023/12/30 00:18:52;;;;;;;13.98;1.55;;;;;;;;;;4944352;28;20043;-77
2023/12/30 00:21:21;;;;;;;10.82;1.25;;;;;;;;;;4945236;28;20036;-77
2023/12/30 00:23:48;;;;;;;15.98;1.80;;;;;;;;;;4939082;28;20035;-77
2023/12/30 00:26:23;;;;;;;11.68;2.17;;;;;;;;;;4956053;28;20027;-77
2023/12/30 00:28:50;;;;;;;13.65;1.80;;;;;;;;;;4948208;28;20031;-77
2023/12/30 00:31:26;;;;;;;16.98;3.53;;;;;;;;;;4940204;28;20019;-76
2023/12/30 00:33:52;;;;;;;6.78;1.95;;;;;;;;;;4944569;28;20043;-77
2023/12/30 00:36:18;;;;;;;14.10;1.20;;;;;;;;;;4947227;28;20058;-75
2023/12/30 00:38:44;;;;;;;12.50;1.52;;;;;;;;;;4946291;28;20024;-76
2023/12/30 00:41:13;;;;;;;14.48;1.85;;;;;;;;;;4945085;28;20041;-76
2023/12/30 00:43:39;;;;;;;9.40;1.50;;;;;;;;;;4947657;28;20027;-76
2023/12/30 00:46:05;;;;;;;15.70;1.85;;;;;;;;;;4936400;29;20106;-76
2023/12/30 00:48:31;;;;;;;12.82;1.85;;;;;;;;;;4930943;29;20389;-76
2023/12/30 00:50:57;;;;;;;10.32;1.20;;;;;;;;;;4931567;28;20055;-76
2023/12/30 00:53:23;;;;;;;12.55;1.30;;;;;;;;;;4942566;28;20050;-76
2023/12/30 00:55:49;;;;;;;7.68;1.60;;;;;;;;;;4942603;28;20035;-76
2023/12/30 00:58:15;;;;;;;15.75;1.55;;;;;;;;;;4964804;28;20066;-76
2023/12/30 01:00:41;;;;;;;15.32;1.38;;;;;;;;;;4943694;28;20031;-76
2023/12/30 01:03:07;;;;;;;13.27;1.70;;;;;;;;;;4937745;29;20083;-76
2023/12/30 01:05:33;;;;;;;13.48;2.60;;;;;;;;;;4940490;28;20449;-76
2023/12/30 01:07:59;;;;;;;14.07;1.92;;;;;;;;;;4931699;28;20039;-76
2023/12/30 01:10:26;;;;;;;17.48;1.67;;;;;;;;;;4938189;28;20663;-76
2023/12/30 01:12:52;;;;;;;14.45;1.70;;;;;;;;;;4949221;29;20086;-76
2023/12/30 01:15:19;;;;;;;8.77;1.58;;;;;;;;;;4941895;28;20036;-76
2023/12/30 01:17:45;;;;;;;15.30;2.00;;;;;;;;;;4930284;29;20046;-76
2023/12/30 01:20:11;;;;;;;11.55;1.90;;;;;;;;;;4936021;28;20122;-75
2023/12/30 01:22:37;;;;;;;12.55;1.65;;;;;;;;;;4941962;29;20040;-76
2023/12/30 01:25:03;;;;;;;16.98;2.25;;;;;;;;;;4932987;29;20397;-76
2023/12/30 01:27:29;;;;;;;12.73;1.60;;;;;;;;;;4944636;28;20031;-76
2023/12/30 01:29:55;;;;;;;11.20;1.77;;;;;;;;;;4948034;28;20035;-76
2023/12/30 01:32:21;;;;;;;11.93;1.63;;;;;;;;;;4938229;29;20029;-76
2023/12/30 01:34:47;;;;;;;8.15;1.50;;;;;;;;;;4943292;28;20061;-75
2023/12/30 01:37:13;;;;;;;10.52;1.55;;;;;;;;;;4944826;28;20027;-76
2023/12/30 01:39:39;;;;;;;16.30;1.67;;;;;;;;;;4947146;29;20051;-76
2023/12/30 01:42:05;;;;;;;6.18;1.20;;;;;;;;;;4937227;28;20467;-75
2023/12/30 01:44:31;;;;;;;14.13;3.22;;;;;;;;;;4935777;29;20115;-76
2023/12/30 01:46:59;;;;;;;8.23;1.50;;;;;;;;;;4937490;29;20032;-75
2023/12/30 01:49:25;;;;;;;8.70;1.15;;;;;;;;;;4939284;28;20185;-75
2023/12/30 01:51:53;;;;;;;12.40;2.08;;;;;;;;;;4937593;28;20074;-77
2023/12/30 01:54:20;;;;;;;13.18;1.70;;;;;;;;;;4946424;28;20046;-77
2023/12/30 01:56:46;;;;;;;14.18;1.50;;;;;;;;;;4944334;28;20028;-77
2023/12/30 01:59:15;;;;;;;12.70;2.08;;;;;;;;;;4930260;28;20397;-77
2023/12/30 02:01:41;;;;;;;11.15;1.45;;;;;;;;;;4947297;28;20028;-76
2023/12/30 02:04:08;;;;;;;17.63;1.85;;;;;;;;;;4930707;28;20091;-77
2023/12/30 02:06:34;;;;;;;6.88;1.60;;;;;;;;;;4940384;28;20046;-78
2023/12/30 02:09:02;;;;;;;9.63;1.38;;;;;;;;;;4939892;28;20035;-78
2023/12/30 02:11:28;;;;;;;13.10;2.15;;;;;;;;;;4949967;28;20508;-78
2023/12/30 02:13:54;;;;;;;11.40;1.30;;;;;;;;;;4938414;28;20103;-78
2023/12/30 02:16:20;;;;;;;9.75;1.85;;;;;;;;;;4942220;28;20043;-77
2023/12/30 02:18:46;;;;;;;12.32;2.05;;;;;;;;;;4954254;28;20119;-77
2023/12/30 02:21:12;;;;;;;13.13;3.25;;;;;;;;;;4950709;28;20031;-77
2023/12/30 02:23:38;;;;;;;8.65;1.15;;;;;;;;;;4936469;28;20103;-77
2023/12/30 02:26:07;;;;;;;10.27;2.00;;;;;;;;;;4944868;28;20023;-77
2023/12/30 02:28:33;;;;;;;15.88;2.38;;;;;;;;;;4941798;28;20039;-77
2023/12/30 02:30:59;;;;;;;7.95;1.40;;;;;;;;;;4943345;29;20062;-78
2023/12/30 02:33:25;;;;;;;9.05;2.08;;;;;;;;;;4948988;28;20474;-76
2023/12/30 02:35:51;;;;;;;19.30;2.50;;;;;;;;;;4952198;28;20042;-75
2023/12/30 02:38:17;;;;;;;8.45;1.38;;;;;;;;;;4946687;28;20031;-78
2023/12/30 02:40:44;;;;;;;16.00;1.83;;;;;;;;;;4944875;29;20110;-75
2023/12/30 02:43:10;;;;;;;16.40;3.00;;;;;;;;;;4948016;28;20036;-76
2023/12/30 02:45:36;;;;;;;13.95;3.10;;;;;;;;;;4951059;29;20041;-75
2023/12/30 02:48:03;;;;;;;13.20;2.17;;;;;;;;;;4936437;29;20094;-75
2023/12/30 02:50:29;;;;;;;15.40;1.98;;;;;;;;;;4933063;29;20485;-75
2023/12/30 02:52:55;;;;;;;7.07;1.50;;;;;;;;;;4949899;28;20399;-76
2023/12/30 02:55:21;;;;;;;16.05;1.65;;;;;;;;;;4947139;28;20034;-76
2023/12/30 02:57:48;;;;;;;19.52;2.45;;;;;;;;;;4948854;29;20035;-76
2023/12/30 03:00:14;;;;;;;8.13;1.35;;;;;;;;;;4939994;29;20039;-76
2023/12/30 03:02:40;;;;;;;10.00;1.60;;;;;;;;;;4950087;28;20592;-76
2023/12/30 03:05:06;;;;;;;12.15;1.48;;;;;;;;;;4936814;28;20118;-75
2023/12/30 03:07:36;;;;;;;12.05;2.13;;;;;;;;;;4953644;28;20035;-76
2023/12/30 03:10:02;;;;;;;12.60;1.58;;;;;;;;;;4942026;28;20073;-76
2023/12/30 03:12:29;;;;;;;10.52;1.98;;;;;;;;;;4939596;28;20066;-76
2023/12/30 03:14:55;;;;;;;15.05;2.08;;;;;;;;;;4963060;28;20532;-78
2023/12/30 03:17:21;;;;;;;14.50;1.73;;;;;;;;;;4962969;28;20066;-78
2023/12/30 03:19:47;;;;;;;15.35;1.77;;;;;;;;;;4942672;28;20035;-75
2023/12/30 03:22:13;;;;;;;18.35;1.65;;;;;;;;;;4934553;29;20083;-75
2023/12/30 03:24:39;;;;;;;10.27;1.55;;;;;;;;;;4948468;28;20031;-75
2023/12/30 03:27:05;;;;;;;11.77;1.85;;;;;;;;;;4949695;28;20031;-76
2023/12/30 03:29:31;;;;;;;14.35;2.15;;;;;;;;;;4938247;28;20031;-76
2023/12/30 03:31:57;;;;;;;17.00;2.58;;;;;;;;;;4947961;28;20035;-76
2023/12/30 03:34:23;;;;;;;16.60;2.28;;;;;;;;;;4946185;28;20098;-76
2023/12/30 03:36:49;;;;;;;13.80;1.98;;;;;;;;;;4932410;29;20478;-75
2023/12/30 03:39:15;;;;;;;12.15;1.88;;;;;;;;;;4941052;28;20047;-75
2023/12/30 03:41:41;;;;;;;12.23;2.28;;;;;;;;;;4941342;29;20087;-76
2023/12/30 03:44:07;;;;;;;12.85;1.67;;;;;;;;;;4938232;28;20363;-76
2023/12/30 03:46:33;;;;;;;11.90;1.45;;;;;;;;;;4934033;29;20118;-76
2023/12/30 03:48:59;;;;;;;15.50;2.20;;;;;;;;;;4943995;29;20019;-76
2023/12/30 03:51:25;;;;;;;11.35;2.05;;;;;;;;;;4940657;28;20031;-77
2023/12/30 03:53:51;;;;;;;11.75;1.45;;;;;;;;;;4935040;28;20042;-77
2023/12/30 03:56:17;;;;;;;15.77;1.75;;;;;;;;;;4942574;28;20023;-75
2023/12/30 03:58:43;;;;;;;14.75;2.40;;;;;;;;;;4938338;29;20434;-76
2023/12/30 04:01:10;;;;;;;10.73;3.03;;;;;;;;;;4949270;28;20039;-76
2023/12/30 04:03:36;;;;;;;16.73;3.10;;;;;;;;;;4937655;29;20536;-76
2023/12/30 04:06:02;;;;;;;8.13;1.55;;;;;;;;;;4942828;28;20035;-76
2023/12/30 04:08:28;;;;;;;12.23;1.67;;;;;;;;;;4931762;28;20031;-76
2023/12/30 04:10:54;;;;;;;20.48;1.80;;;;;;;;;;4935700;28;20038;-76
2023/12/30 04:13:20;;;;;;;13.98;1.90;;;;;;;;;;4943813;28;20031;-76
2023/12/30 04:15:46;;;;;;;10.65;1.75;;;;;;;;;;4934841;29;20038;-76
2023/12/30 04:18:12;;;;;;;16.95;1.75;;;;;;;;;;4945867;28;20497;-75
2023/12/30 04:20:38;;;;;;;16.65;1.80;;;;;;;;;;4933134;28;20047;-76
2023/12/30 04:23:04;;;;;;;15.05;2.22;;;;;;;;;;4934658;29;20027;-76
2023/12/30 04:25:30;;;;;;;21.48;1.80;;;;;;;;;;4931697;29;20039;-75
2023/12/30 04:27:56;;;;;;;13.93;2.33;;;;;;;;;;4938499;28;20106;-77
2023/12/30 04:30:22;;;;;;;15.60;2.53;;;;;;;;;;4945571;28;20625;-77
2023/12/30 04:32:48;;;;;;;12.95;1.85;;;;;;;;;;4941579;29;20139;-77
2023/12/30 04:35:14;;;;;;;9.52;1.35;;;;;;;;;;4947943;28;20158;-78
2023/12/30 04:37:40;;;;;;;13.95;1.73;;;;;;;;;;4938525;28;20036;-75
2023/12/30 04:40:07;;;;;;;16.25;2.70;;;;;;;;;;4941545;28;20098;-77
2023/12/30 04:42:33;;;;;;;14.93;2.67;;;;;;;;;;4945820;29;20428;-77
2023/12/30 04:44:59;;;;;;;15.73;2.47;;;;;;;;;;4952747;28;20487;-77
2023/12/30 04:47:25;;;;;;;16.40;2.53;;;;;;;;;;4946752;29;20114;-77
2023/12/30 04:49:51;;;;;;;18.08;2.13;;;;;;;;;;4946415;28;20032;-77
2023/12/30 04:52:17;;;;;;;8.57;2.00;;;;;;;;;;4946349;28;20043;-77
2023/12/30 04:54:43;;;;;;;10.75;1.92;;;;;;;;;;4937552;28;20473;-77
2023/12/30 04:57:09;;;;;;;14.65;4.03;;;;;;;;;;4945352;28;20627;-77
2023/12/30 04:59:35;;;;;;;17.25;2.05;;;;;;;;;;4937454;29;20035;-77
2023/12/30 05:02:01;;;;;;;15.52;2.95;;;;;;;;;;4941730;28;20519;-77
2023/12/30 05:04:28;;;;;;;21.50;3.00;;;;;;;;;;4945161;29;20489;-78
2023/12/30 05:06:54;;;;;;;17.33;2.30;;;;;;;;;;4948664;28;20055;-78
2023/12/30 05:09:20;;;;;;;12.63;2.70;;;;;;;;;;4939272;28;20134;-75
2023/12/30 05:11:48;;;;;;;20.33;3.50;;;;;;;;;;4948591;28;20032;-77
2023/12/30 05:14:15;;;;;;;15.13;1.95;;;;;;;;;;4936917;29;20706;-76
2023/12/30 05:16:45;;;;;;;15.90;2.20;;;;;;;;;;4943993;29;20047;-76
2023/12/30 05:19:11;;;;;;;10.50;2.22;;;;;;;;;;4941269;28;20035;-76
2023/12/30 05:21:37;;;;;;;20.52;2.83;;;;;;;;;;4930518;29;20035;-76
2023/12/30 05:24:04;;;;;;;11.00;1.80;;;;;;;;;;4934747;28;20023;-76
2023/12/30 05:26:30;;;;;;;12.80;1.50;;;;;;;;;;4948342;28;20039;-76
2023/12/30 05:28:57;;;;;;;17.88;2.08;;;;;;;;;;4946027;28;20023;-76
2023/12/30 05:31:23;;;;;;;11.57;2.03;;;;;;;;;;4947996;28;20142;-76
2023/12/30 05:33:49;;;;;;;16.45;2.60;;;;;;;;;;4963282;28;20071;-75
2023/12/30 05:36:15;;;;;;;19.52;2.13;;;;;;;;;;4931883;29;20556;-75
2023/12/30 05:38:41;;;;;;;18.35;2.47;;;;;;;;;;4939522;29;20299;-76
2023/12/30 05:41:07;;;;;;;16.83;2.95;;;;;;;;;;4947023;28;20481;-76
2023/12/30 05:43:33;;;;;;;12.68;1.75;;;;;;;;;;4950569;28;20050;-76
2023/12/30 05:45:59;;;;;;;17.33;2.38;;;;;;;;;;4947503;28;20035;-75
2023/12/30 05:48:26;;;;;;;20.52;3.83;;;;;;;;;;4938962;28;20032;-75
2023/12/30 05:50:51;;;;;;;15.45;1.73;;;;;;;;;;4945608;28;20158;-75
2023/12/30 05:53:17;;;;;;;19.60;2.53;;;;;;;;;;4956251;28;20123;-75
2023/12/30 05:55:43;;;;;;;19.20;4.30;;;;;;;;;;4940281;29;20496;-74
2023/12/30 05:58:10;;;;;;;13.05;1.85;;;;;;;;;;4937796;29;20034;-75
2023/12/30 06:00:36;;;;;;;10.52;3.28;;;;;;;;;;4943196;28;20043;-75
2023/12/30 06:03:02;;;;;;;17.25;1.85;;;;;;;;;;4940424;28;20109;-75
2023/12/30 06:05:28;;;;;;;18.42;2.15;;;;;;;;;;4938912;29;20038;-75
2023/12/30 06:07:54;;;;;;;12.50;2.10;;;;;;;;;;4940303;28;20478;-76
2023/12/30 06:10:20;;;;;;;15.30;1.83;;;;;;;;;;4943670;29;20067;-76
2023/12/30 06:12:46;;;;;;;22.13;2.60;;;;;;;;;;4950016;28;20027;-76
2023/12/30 06:15:12;;;;;;;11.65;1.80;;;;;;;;;;4948548;28;20117;-76
2023/12/30 06:17:38;;;;;;;19.65;3.15;;;;;;;;;;4934115;29;20063;-76
2023/12/30 06:20:04;;;;;;;22.02;2.92;;;;;;;;;;4940374;29;20031;-76
2023/12/30 06:22:30;;;;;;;16.27;3.08;;;;;;;;;;4950394;28;20054;-76
2023/12/30 06:24:56;;;;;;;15.85;1.73;;;;;;;;;;4949115;28;20024;-75
2023/12/30 06:27:23;;;;;;;13.27;2.50;;;;;;;;;;4937091;28;20038;-76
2023/12/30 06:29:49;;;;;;;18.83;2.83;;;;;;;;;;4939781;29;20031;-76
2023/12/30 06:32:15;;;;;;;20.15;2.88;;;;;;;;;;4944484;29;20082;-76
2023/12/30 06:34:41;;;;;;;9.30;1.90;;;;;;;;;;4954962;28;20110;-75
2023/12/30 06:37:07;;;;;;;11.98;2.22;;;;;;;;;;5088827;23;20051;-75
2023/12/30 06:39:33;;;;;;;15.52;2.47;;;;;;;;;;4972809;28;20054;-76
2023/12/30 06:41:59;;;;;;;12.18;2.28;;;;;;;;;;4962705;28;20236;-82
2023/12/30 06:44:25;;;;;;;14.52;3.08;;;;;;;;;;4967604;28;20022;-75
2023/12/30 06:46:52;;;;;;;17.95;2.55;;;;;;;;;;4966208;28;20110;-78
2023/12/30 06:49:18;;;;;;;16.23;1.90;;;;;;;;;;4967180;28;20669;-75
2023/12/30 06:51:44;;;;;;;19.33;2.30;;;;;;;;;;4963875;28;20042;-75
2023/12/30 06:54:10;;;;;;;18.23;2.65;;;;;;;;;;4966655;28;20380;-75
2023/12/30 06:56:36;;;;;;;24.73;2.63;;;;;;;;;;4970272;28;20033;-75
2023/12/30 06:59:02;;;;;;;17.20;1.75;;;;;;;;;;4979647;28;20027;-75
2023/12/30 07:01:28;;;;;;;12.55;2.33;;;;;;;;;;4955646;28;20097;-75
2023/12/30 07:03:55;;;;;;;19.95;3.22;;;;;;;;;;4966864;28;20046;-78
2023/12/30 07:06:21;;;;;;;19.23;2.38;;;;;;;;;;4958678;28;20538;-78
2023/12/30 07:08:47;;;;;;;25.58;2.00;;;;;;;;;;4964634;28;20613;-78
2023/12/30 07:11:13;;;;;;;14.50;2.08;;;;;;;;;;4966844;28;20041;-78
2023/12/30 07:13:39;;;;;;;20.42;1.75;;;;;;;;;;4966791;28;20388;-77
2023/12/30 07:16:05;;;;;;;12.40;2.22;;;;;;;;;;4958819;28;20602;-77
2023/12/30 07:18:31;;;;;;;15.43;3.05;;;;;;;;;;4962747;28;20043;-77
2023/12/30 07:20:57;;;;;;;16.75;3.15;;;;;;;;;;4985669;28;20030;-77
2023/12/30 07:23:23;;;;;;;10.85;1.55;;;;;;;;;;4975258;28;20468;-77
2023/12/30 07:25:51;;;;;;;12.52;2.67;;;;;;;;;;4965316;28;20031;-77
2023/12/30 07:28:17;;;;;;;18.65;2.65;;;;;;;;;;4957576;28;21951;-77
2023/12/30 07:30:43;;;;;;;19.98;3.60;;;;;;;;;;4961130;28;20102;-77
2023/12/30 07:33:09;;;;;;;12.23;1.67;;;;;;;;;;4964551;28;20034;-77
2023/12/30 07:35:35;;;;;;;20.73;4.00;;;;;;;;;;4959951;28;20035;-78
2023/12/30 07:38:12;;;;;;;12.40;2.22;;;;;;;;;;4951468;28;20524;-77
2023/12/30 07:40:38;;;;;;;17.52;3.85;;;;;;;;;;4957932;28;20035;-78
2023/12/30 07:43:04;;;;;;;18.63;2.95;;;;;;;;;;4951138;28;20428;-77
2023/12/30 07:45:30;;;;;;;20.92;3.22;;;;;;;;;;4963716;28;20039;-79
2023/12/30 09:30:19;;;;;;;12.07;1.92;;;;;;;;;;5085207;27;20424;-79
2023/12/30 09:32:45;;;;;;;19.92;3.10;;;;;;;;;;5009271;28;62684;-78
2023/12/30 09:35:11;;;;;;;15.10;2.22;;;;;;;;;;5024070;28;66063;-79
2023/12/30 09:37:37;;;;;;;11.73;1.75;;;;;;;;;;5066894;28;20060;-79
2023/12/30 09:40:03;;;;;;;12.27;2.08;;;;;;;;;;5048848;28;20111;-79
2023/12/30 09:42:29;;;;;;;13.18;1.95;;;;;;;;;;5057147;28;20055;-79
2023/12/30 09:44:55;;;;;;;14.18;2.67;;;;;;;;;;5062156;28;20028;-79
2023/12/30 09:47:22;;;;;;;13.13;2.67;;;;;;;;;;5062146;28;20083;-79
2023/12/30 09:49:49;;;;;;;14.77;2.00;;;;;;;;;;5059993;28;20094;-79
2023/12/30 09:52:15;;;;;;;17.13;2.45;;;;;;;;;;5053496;28;20776;-79
2023/12/30 09:54:41;;;;;;;9.23;2.53;;;;;;;;;;5055360;28;20028;-79
2023/12/30 09:57:08;;;;;;;9.25;2.22;;;;;;;;;;5060269;28;20040;-78
2023/12/30 09:59:36;;;;;;;14.98;2.83;;;;;;;;;;5062399;28;20033;-83
2023/12/30 10:02:06;;;;;;;25.52;6.50;;;;;;;;;;5068056;28;20021;-77
2023/12/30 10:04:33;;;;;;;14.73;2.13;;;;;;;;;;5050216;28;20100;-78
2023/12/30 10:06:59;;;;;;;13.05;3.53;;;;;;;;;;5044459;28;20037;-80
2023/12/30 10:09:25;;;;;;;12.27;2.28;;;;;;;;;;5055035;28;20052;-80
2023/12/30 10:11:51;;;;;;;16.70;2.47;;;;;;;;;;5045224;28;20040;-80
2023/12/30 10:14:17;;;;;;;13.27;2.42;;;;;;;;;;5045634;28;20036;-80
2023/12/30 10:16:44;;;;;;;11.65;2.50;;;;;;;;;;5058240;28;20036;-80
2023/12/30 10:19:10;;;;;;;13.05;2.88;;;;;;;;;;5050688;28;20608;-79
2023/12/30 10:21:40;;;;;;;13.27;2.70;;;;;;;;;;5059921;28;20029;-79
2023/12/30 10:24:06;;;;;;;18.20;2.38;;;;;;;;;;5049754;28;20025;-79
2023/12/30 10:26:33;;;;;;;11.82;3.42;;;;;;;;;;5058875;28;20512;-80
2023/12/30 10:28:59;;;;;;;16.50;2.50;;;;;;;;;;5049704;28;23082;-79
2023/12/30 10:31:25;;;;;;;14.18;2.35;;;;;;;;;;5055949;28;20112;-79
2023/12/30 10:33:52;;;;;;;10.88;2.35;;;;;;;;;;5054795;28;20044;-79
2023/12/30 10:36:19;;;;;;;11.13;2.35;;;;;;;;;;5052099;28;20043;-79
2023/12/30 10:38:45;;;;;;;8.63;2.58;;;;;;;;;;5053750;28;20087;-80
2023/12/30 10:41:11;;;;;;;9.98;2.03;;;;;;;;;;5051317;28;20080;-80
2023/12/30 10:43:38;;;;;;;12.15;2.45;;;;;;;;;;5048904;28;20021;-80
2023/12/30 10:46:10;;;;;;;9.82;1.90;;;;;;;;;;5048979;28;20108;-80
2023/12/30 10:48:38;;;;;;;14.10;2.65;;;;;;;;;;5048111;28;20033;-80
2023/12/30 10:51:04;;;;;;;14.68;3.95;;;;;;;;;;5047790;28;20032;-79
2023/12/30 10:53:40;;;;;;;13.35;3.25;;;;;;;;;;5045654;28;20120;-79
2023/12/30 10:56:07;;;;;;;16.77;2.80;;;;;;;;;;5049944;28;20108;-80
2023/12/30 10:58:37;;;;;;;11.25;2.38;;;;;;;;;;5049372;28;20596;-80
2023/12/30 11:01:04;;;;;;;16.65;2.75;;;;;;;;;;5050713;28;20031;-79
2023/12/30 11:03:32;;;;;;;7.78;2.13;;;;;;;;;;5050106;28;20386;-80
2023/12/30 11:06:04;;;;;;;13.40;2.85;;;;;;;;;;5048837;28;20025;-80
2023/12/30 11:08:30;;;;;;;12.38;2.40;;;;;;;;;;5049277;28;20665;-80
2023/12/30 11:11:03;;;;;;;13.55;2.13;;;;;;;;;;5047588;28;20025;-80
2023/12/30 11:13:35;;;;;;;12.43;2.58;;;;;;;;;;5049895;28;20110;-80
2023/12/30 11:16:20;;;;;;;18.35;2.90;;;;;;;;;;5049948;28;20013;-79
2023/12/30 11:18:46;;;;;;;6.93;1.67;;;;;;;;;;5042331;28;20095;-78
2023/12/30 11:21:13;;;;;;;19.73;2.47;;;;;;;;;;5042170;28;20685;-79
2023/12/30 11:23:40;;;;;;;12.00;1.98;;;;;;;;;;5032394;28;20033;-79
2023/12/30 11:26:08;;;;;;;9.85;2.00;;;;;;;;;;5049502;28;20033;-80
2023/12/30 11:28:37;;;;;;;12.13;1.63;;;;;;;;;;5040213;28;20108;-79
2023/12/30 11:31:03;;;;;;;10.63;1.95;;;;;;;;;;5038830;28;20124;-81
2023/12/30 11:33:29;;;;;;;14.55;1.75;;;;;;;;;;5044432;28;20537;-79
2023/12/30 11:35:55;;;;;;;12.63;1.77;;;;;;;;;;5044744;28;20104;-79
2023/12/30 11:38:21;;;;;;;10.38;1.45;;;;;;;;;;5044744;28;20055;-79
2023/12/30 11:40:52;;;;;;;14.95;1.90;;;;;;;;;;5047599;28;20057;-79
2023/12/30 11:43:20;;;;;;;10.75;1.85;;;;;;;;;;5032674;28;20025;-79
2023/12/30 11:45:46;;;;;;;16.75;2.38;;;;;;;;;;5042131;28;20095;-78
2023/12/30 11:48:12;;;;;;;11.20;2.35;;;;;;;;;;5045120;28;20046;-77
2023/12/30 11:50:38;;;;;;;16.70;2.25;;;;;;;;;;5046753;28;20565;-77
2023/12/30 11:53:04;;;;;;;8.43;1.67;;;;;;;;;;5043861;28;20013;-78
2023/12/30 11:55:30;;;;;;;18.13;2.33;;;;;;;;;;5037963;28;20032;-77
2023/12/30 11:57:57;;;;;;;22.92;7.18;;;;;;;;;;5036267;28;20021;-74
2023/12/30 12:00:26;;;;;;;11.27;2.10;;;;;;;;;;5047512;28;20037;-74
2023/12/30 12:02:53;;;;;;;9.88;1.55;;;;;;;;;;5048488;28;20107;-78
2023/12/30 12:05:19;;;;;;;16.25;2.80;;;;;;;;;;5034984;28;20029;-78
2023/12/30 12:07:45;;;;;;;11.52;1.80;;;;;;;;;;5041888;28;20033;-78
2023/12/30 12:10:13;;;;;;;15.15;2.03;;;;;;;;;;5030916;28;20029;-77
2023/12/30 12:12:42;;;;;;;12.30;2.33;;;;;;;;;;5035914;28;20032;-79
2023/12/30 12:15:08;;;;;;;14.02;1.80;;;;;;;;;;5039255;28;20021;-78
2023/12/30 12:17:37;;;;;;;14.50;2.95;;;;;;;;;;5045677;28;20074;-78
2023/12/30 12:20:08;;;;;;;23.08;6.00;;;;;;;;;;5034705;28;20029;-78
2023/12/30 12:22:34;;;;;;;20.38;5.03;;;;;;;;;;5029496;28;20032;-78
2023/12/30 12:25:03;;;;;;;19.45;3.08;;;;;;;;;;5046481;28;20052;-77
2023/12/30 12:27:30;;;;;;;13.82;2.72;;;;;;;;;;5042103;28;20028;-78
2023/12/30 12:29:56;;;;;;;11.75;2.30;;;;;;;;;;5043212;28;20044;-77
2023/12/30 12:32:23;;;;;;;10.40;2.42;;;;;;;;;;5047919;28;20041;-78
2023/12/30 12:34:49;;;;;;;11.40;1.85;;;;;;;;;;5048019;28;20405;-78
2023/12/30 12:37:18;;;;;;;12.05;2.17;;;;;;;;;;5040189;28;20052;-80
2023/12/30 12:39:45;;;;;;;21.17;2.05;;;;;;;;;;5037280;28;20057;-77
2023/12/30 12:42:12;;;;;;;10.45;2.28;;;;;;;;;;5046003;28;20033;-77
2023/12/30 12:44:43;;;;;;;7.90;2.03;;;;;;;;;;5033996;28;20056;-80
2023/12/30 12:47:09;;;;;;;6.32;1.92;;;;;;;;;;5031479;28;20045;-78
2023/12/30 12:49:35;;;;;;;15.18;2.75;;;;;;;;;;5026416;28;20041;-79
2023/12/30 12:52:02;;;;;;;10.95;2.00;;;;;;;;;;5044683;28;20021;-77
2023/12/30 12:54:29;;;;;;;14.48;2.13;;;;;;;;;;5045857;28;20029;-76
2023/12/30 12:56:56;;;;;;;12.98;1.95;;;;;;;;;;5046845;28;20025;-77
2023/12/30 12:59:24;;;;;;;14.52;1.55;;;;;;;;;;5042052;28;20449;-76
2023/12/30 13:01:52;;;;;;;15.07;2.13;;;;;;;;;;5046903;28;20043;-76
2023/12/30 13:04:20;;;;;;;15.60;2.55;;;;;;;;;;5047062;28;20064;-78
2023/12/30 13:06:47;;;;;;;16.75;2.92;;;;;;;;;;5062538;28;20032;-78
2023/12/30 13:12:06;;;;;;;13.32;2.20;;;;;;;;;;5026406;28;20064;-77
2023/12/30 13:14:34;;;;;;;18.83;2.78;;;;;;;;;;5028618;28;20417;-78
2023/12/30 13:17:01;;;;;;;20.17;1.75;;;;;;;;;;5044481;28;20025;-76
2023/12/30 13:19:27;;;;;;;15.45;2.58;;;;;;;;;;5063667;28;20538;-77
2023/12/30 13:21:53;;;;;;;15.27;2.78;;;;;;;;;;5046286;28;20656;-76
2023/12/30 13:24:20;;;;;;;13.18;2.15;;;;;;;;;;5045537;28;20039;-77
2023/12/30 13:26:46;;;;;;;13.15;2.20;;;;;;;;;;5047797;28;20032;-77
2023/12/30 13:29:13;;;;;;;15.77;1.80;;;;;;;;;;5047552;28;20459;-77
2023/12/30 13:31:40;;;;;;;24.38;2.63;;;;;;;;;;5043085;28;20025;-77
2023/12/30 13:34:06;;;;;;;12.48;2.53;;;;;;;;;;5026911;28;20392;-76
2023/12/30 13:36:35;;;;;;;17.08;2.58;;;;;;;;;;5030386;28;20494;-77
2023/12/30 13:39:13;;;;;;;14.27;2.10;;;;;;;;;;5047386;28;20165;-77
2023/12/30 13:41:40;;;;;;;16.17;3.15;;;;;;;;;;5046347;28;20504;-77
2023/12/30 13:44:12;;;;;;;15.52;2.55;;;;;;;;;;5046661;28;20025;-77
2023/12/30 13:46:57;;;;;;;16.45;2.60;;;;;;;;;;5047946;28;20029;-76
2023/12/30 13:52:28;;;;;;;;;;;;;;;;;;5085820;28;20693;-76
2023/12/30 13:54:54;;;;;;;15.45;2.75;;;;;;;;;;5049847;28;20301;-75
2023/12/30 13:57:42;;;;;;;20.60;4.10;;;;;;;;;;5045437;28;20533;-78
2023/12/30 14:00:14;;;;;;;16.15;3.88;;;;;;;;;;5046667;28;20120;-76
2023/12/30 14:02:42;;;;;;;21.37;3.00;;;;;;;;;;5047913;28;20482;-77
2023/12/30 14:05:28;;;;;;;20.63;2.97;;;;;;;;;;5047440;28;20098;-76
2023/12/30 14:07:56;;;;;;;14.98;1.98;;;;;;;;;;5063095;28;20047;-76
2023/12/30 14:10:25;;;;;;;17.73;2.80;;;;;;;;;;5047839;28;20029;-76
2023/12/30 14:12:59;;;;;;;17.38;3.05;;;;;;;;;;5061922;28;20044;-76
2023/12/30 14:15:25;;;;;;;16.58;3.60;;;;;;;;;;5045776;28;20593;-75
2023/12/30 14:17:51;;;;;;;21.15;3.28;;;;;;;;;;5036470;28;20112;-78
2023/12/30 14:20:17;;;;;;;13.45;2.33;;;;;;;;;;5045942;28;20056;-75
2023/12/30 14:22:45;;;;;;;16.88;3.40;;;;;;;;;;5051586;28;20032;-76
2023/12/30 14:25:12;;;;;;;27.50;3.80;;;;;;;;;;5051396;28;20122;-75
2023/12/30 14:27:40;;;;;;;20.33;3.63;;;;;;;;;;5050715;28;20029;-76
2023/12/30 14:30:06;;;;;;;19.60;4.80;;;;;;;;;;5032316;28;20087;-77
2023/12/30 14:32:32;;;;;;;23.63;5.20;;;;;;;;;;5051613;28;20028;-75
2023/12/30 14:35:00;;;;;;;21.92;4.78;;;;;;;;;;5051337;28;20508;-76
2023/12/30 14:37:26;;;;;;;20.45;4.40;;;;;;;;;;5049330;28;20121;-75
2023/12/30 14:39:52;;;;;;;28.23;5.80;;;;;;;;;;5051795;28;20060;-75
2023/12/30 14:42:19;;;;;;;24.52;6.15;;;;;;;;;;5049748;28;20088;-75
2023/12/30 14:44:45;;;;;;;27.15;4.93;;;;;;;;;;5050657;28;20119;-75
2023/12/30 14:47:11;;;;;;;20.40;5.00;;;;;;;;;;5051334;28;20104;-75
2023/12/30 14:49:37;;;;;;;24.45;6.18;;;;;;;;;;5049794;28;20029;-75
2023/12/30 14:52:04;;;;;;;20.02;5.28;;;;;;;;;;5050879;28;20108;-75
2023/12/30 14:54:30;;;;;;;27.60;5.82;;;;;;;;;;5050664;28;20079;-75
2023/12/30 14:56:56;;;;;;;18.15;4.43;;;;;;;;;;5049356;28;20512;-75
2023/12/30 14:59:22;;;;;;;27.27;5.82;;;;;;;;;;5048057;28;20021;-77
2023/12/30 15:01:48;;;;;;;29.67;4.88;;;;;;;;;;5044398;28;20115;-76
2023/12/30 15:04:14;;;;;;;28.55;5.70;;;;;;;;;;5050727;28;20107;-76
2023/12/30 15:06:41;;;;;;;21.50;4.88;;;;;;;;;;5051102;28;20075;-76
2023/12/30 15:09:09;;;;;;;29.25;7.13;;;;;;;;;;5048703;28;20037;-76
2023/12/30 15:11:36;;;;;;;26.95;5.10;;;;;;;;;;5049623;28;20028;-76
2023/12/30 15:14:04;;;;;;;26.63;6.35;;;;;;;;;;5051099;28;20111;-76
2023/12/30 15:16:30;;;;;;;20.20;4.85;;;;;;;;;;5050597;28;20043;-76
2023/12/30 15:18:56;;;;;;;26.00;6.05;;;;;;;;;;5049543;28;20086;-75
2023/12/30 15:21:22;;;;;;;24.75;5.90;;;;;;;;;;5047826;28;20056;-75
2023/12/30 15:23:48;;;;;;;30.75;5.70;;;;;;;;;;5039632;28;20426;-75
2023/12/30 15:26:14;;;;;;;29.42;6.25;;;;;;;;;;5050366;28;20486;-77
2023/12/30 15:28:40;;;;;;;25.63;6.18;;;;;;;;;;5048806;28;20067;-77
2023/12/30 15:31:06;;;;;;;33.70;7.82;;;;;;;;;;5050083;28;20028;-77
2023/12/30 15:33:32;;;;;;;27.55;7.78;;;;;;;;;;5038176;28;20032;-76
2023/12/30 15:36:02;;;;;;;26.65;8.15;;;;;;;;;;5031917;28;20021;-76
2023/12/30 15:38:28;;;;;;;38.25;10.60;;;;;;;;;;5048310;28;20029;-76
2023/12/30 15:40:54;;;;;;;33.83;10.15;;;;;;;;;;5065462;28;20065;-77
2023/12/30 15:43:21;;;;;;;27.38;10.68;;;;;;;;;;5047897;28;20021;-76
2023/12/30 15:45:47;;;;;;;30.63;10.73;;;;;;;;;;5041792;28;20046;-76
2023/12/30 15:48:14;;;;;;;29.13;11.77;;;;;;;;;;5050398;28;20025;-76
2023/12/30 15:50:40;;;;;;;38.92;11.70;;;;;;;;;;5045530;28;20033;-76
2023/12/30 15:53:06;;;;;;;34.10;11.90;;;;;;;;;;5049031;28;20029;-76
2023/12/30 15:55:32;;;;;;;35.55;11.20;;;;;;;;;;5047487;28;20394;-76
2023/12/30 15:57:58;;;;;;;36.88;12.15;;;;;;;;;;5050429;28;20021;-76
2023/12/30 16:00:24;;;;;;;32.50;12.82;;;;;;;;;;5050087;28;20032;-76
2023/12/30 16:02:50;;;;;;;37.72;13.43;;;;;;;;;;5064866;28;20021;-77
2023/12/30 16:05:16;;;;;;;33.75;14.40;;;;;;;;;;5046840;28;20402;-76
2023/12/30 16:07:42;;;;;;;29.95;12.10;;;;;;;;;;5048661;28;20025;-77
2023/12/30 16:10:08;;;;;;;35.55;16.05;;;;;;;;;;5047611;28;20039;-76
2023/12/30 16:12:34;;;;;;;47.60;18.23;;;;;;;;;;5048143;28;20029;-78
2023/12/30 16:15:01;;;;;;;35.03;15.00;;;;;;;;;;5043621;28;20039;-76
2023/12/30 16:17:27;;;;;;;39.58;13.05;;;;;;;;;;5038082;28;20025;-76